Arapahoe, Nebraska
Current Conditions -  °F | °C
As of 5:15 PM on Wednesday 17 Dec 2014 (Local Time) from KHDE Reporting Station
Overcast Overcast  
Wind Chill: -8°   Ceiling: 1000
Heat Index: -4°   Visibility: 10mi
Dew Point: -6°   Wind: 7mph
Humidity: 89%   Direction: 110°ESE
Pressure: 30.13"   Gusts: NA
Location:  40.3°N, 99.9°W
Report Text: KHDE 172315Z AUTO 11006KT 10SM OVC010 M04/M06 A3013 RMK AO2 T10401056
Loading
Personal Weather Stations






























Interactive Weather Map New forecast layout! Learn more

10-Day Weather Forecast

Advertisements
Track Severe Weather on mobile